createdAt,value
2022-08-17T00:00:56.873Z,6.40
2022-08-17T00:01:56.950Z,9.80
2022-08-17T00:02:56.881Z,7.30
2022-08-17T00:03:56.842Z,9.70
2022-08-17T00:04:56.852Z,5.90
2022-08-17T00:05:56.863Z,6.10
2022-08-17T00:06:56.819Z,7.10
2022-08-17T00:07:56.826Z,8.00
2022-08-17T00:08:56.797Z,6.10
2022-08-17T00:09:56.787Z,6.70
2022-08-17T00:10:56.813Z,6.60
2022-08-17T00:12:40.764Z,5.90
2022-08-17T00:12:57.773Z,5.60
2022-08-17T00:13:56.738Z,6.00
2022-08-17T00:14:56.719Z,6.00
2022-08-17T00:15:56.717Z,9.10
2022-08-17T00:16:57.714Z,5.80
2022-08-17T00:17:56.689Z,7.20
2022-08-17T00:19:07.074Z,7.50
2022-08-17T00:19:57.671Z,11.50
2022-08-17T00:20:56.687Z,5.90
2022-08-17T00:22:32.436Z,5.90
2022-08-17T00:22:57.653Z,7.50
2022-08-17T00:23:56.652Z,6.10
2022-08-17T00:24:56.611Z,8.30
2022-08-17T00:25:56.613Z,7.00
2022-08-17T00:26:56.603Z,6.20
2022-08-17T00:27:56.581Z,6.60
2022-08-17T00:28:56.614Z,6.30
2022-08-17T00:29:56.554Z,6.50
2022-08-17T00:30:56.581Z,7.20
2022-08-17T00:31:56.537Z,6.20
2022-08-17T00:33:15.946Z,6.20
2022-08-17T00:33:57.514Z,7.40
2022-08-17T00:34:56.553Z,6.30
2022-08-17T00:35:56.488Z,6.70
2022-08-17T00:36:56.548Z,6.30
2022-08-17T00:37:56.477Z,6.50
2022-08-17T00:38:56.512Z,6.20
2022-08-17T00:39:56.540Z,6.70
2022-08-17T00:40:59.227Z,7.20
2022-08-17T00:41:56.432Z,7.20
2022-08-17T00:42:56.446Z,6.20
2022-08-17T00:43:56.409Z,6.50
2022-08-17T00:44:56.400Z,8.90
2022-08-17T00:45:56.429Z,5.50
2022-08-17T00:46:56.387Z,8.90
2022-08-17T00:47:56.381Z,8.20
2022-08-17T00:48:56.350Z,7.00
2022-08-17T00:49:56.340Z,6.20
2022-08-17T00:50:56.351Z,6.90
2022-08-17T00:51:56.364Z,6.00
2022-08-17T00:52:56.363Z,6.10
2022-08-17T00:53:56.336Z,6.40
2022-08-17T00:54:56.284Z,7.30
2022-08-17T00:55:56.285Z,5.90
2022-08-17T00:56:56.304Z,5.80
2022-08-17T00:57:56.256Z,8.00
2022-08-17T00:58:56.235Z,6.30
2022-08-17T01:00:03.351Z,6.30
2022-08-17T01:00:57.299Z,6.50
2022-08-17T01:01:56.205Z,6.30
2022-08-17T01:02:56.349Z,6.00
2022-08-17T01:03:59.661Z,6.80
2022-08-17T01:04:56.171Z,6.20
2022-08-17T01:05:56.162Z,7.00
2022-08-17T01:06:56.158Z,5.90
2022-08-17T01:07:56.240Z,6.40
2022-08-17T01:08:57.287Z,8.60
2022-08-17T01:09:56.119Z,6.40
2022-08-17T01:10:58.523Z,7.30
2022-08-17T01:11:57.107Z,6.30
2022-08-17T01:12:56.095Z,9.10
2022-08-17T01:13:56.121Z,7.20
2022-08-17T01:14:56.066Z,6.70
2022-08-17T01:15:56.087Z,6.90
2022-08-17T01:16:56.080Z,7.50
2022-08-17T01:17:56.043Z,7.00
2022-08-17T01:18:56.022Z,9.30
2022-08-17T01:19:56.021Z,8.40
2022-08-17T01:20:56.008Z,6.30
2022-08-17T01:21:56.001Z,6.10
2022-08-17T01:22:55.963Z,6.50
2022-08-17T01:23:55.963Z,6.50
2022-08-17T01:24:55.999Z,7.40
2022-08-17T01:25:55.946Z,7.20
2022-08-17T01:26:56.672Z,7.30
2022-08-17T01:27:55.936Z,8.70
2022-08-17T01:28:56.065Z,6.60
2022-08-17T01:29:55.901Z,8.50
2022-08-17T01:30:59.004Z,6.10
2022-08-17T01:31:55.867Z,9.00
2022-08-17T01:32:55.880Z,6.30
2022-08-17T01:33:55.878Z,6.50
2022-08-17T01:34:55.875Z,7.00
2022-08-17T01:35:55.846Z,6.30
2022-08-17T01:36:55.852Z,6.30
2022-08-17T01:37:55.851Z,10.20
2022-08-17T01:38:55.795Z,7.00
2022-08-17T01:39:55.872Z,7.90
2022-08-17T01:40:57.688Z,7.50
2022-08-17T01:41:55.778Z,6.40
2022-08-17T01:42:55.799Z,6.40
2022-08-17T01:43:55.753Z,9.50
2022-08-17T01:44:55.741Z,6.50
2022-08-17T01:46:03.529Z,6.10
2022-08-17T01:46:56.747Z,6.30
2022-08-17T01:47:55.742Z,6.60
2022-08-17T01:48:56.683Z,6.20
2022-08-17T01:49:55.690Z,7.30
2022-08-17T01:50:55.692Z,6.70
2022-08-17T01:51:55.654Z,6.00
2022-08-17T01:52:55.644Z,8.40
2022-08-17T01:53:55.650Z,8.10
2022-08-17T01:54:55.664Z,6.80
2022-08-17T01:55:55.627Z,7.40
2022-08-17T01:56:55.627Z,6.80
2022-08-17T01:57:55.595Z,7.30
2022-08-17T01:58:55.577Z,7.50
2022-08-17T01:59:55.620Z,7.20
2022-08-17T02:01:00.732Z,7.30
2022-08-17T02:01:56.602Z,7.20
2022-08-17T02:02:55.548Z,6.60
2022-08-17T02:03:59.633Z,8.10
2022-08-17T02:04:56.563Z,7.20
2022-08-17T02:05:55.525Z,7.20
2022-08-17T02:06:55.531Z,7.00
2022-08-17T02:07:59.393Z,6.00
2022-08-17T02:09:03.200Z,8.80
2022-08-17T02:09:56.468Z,6.50
2022-08-17T02:10:55.461Z,7.30
2022-08-17T02:11:56.351Z,6.90
2022-08-17T02:12:55.423Z,8.50
2022-08-17T02:14:02.544Z,8.40
2022-08-17T02:14:56.418Z,9.30
2022-08-17T02:15:55.392Z,10.60
2022-08-17T02:16:55.420Z,7.70
2022-08-17T02:17:55.382Z,6.60
2022-08-17T02:18:55.372Z,8.00
2022-08-17T02:19:55.357Z,6.90
2022-08-17T02:20:55.334Z,6.50
2022-08-17T02:21:55.361Z,8.70
2022-08-17T02:22:55.317Z,6.80
2022-08-17T02:23:55.316Z,7.50
2022-08-17T02:24:59.933Z,6.90
2022-08-17T02:25:56.980Z,8.60
2022-08-17T02:26:55.279Z,6.80
2022-08-17T02:27:55.310Z,6.60
2022-08-17T02:28:55.260Z,10.50
2022-08-17T02:29:55.257Z,7.20
2022-08-17T02:31:01.279Z,6.50
2022-08-17T02:31:56.228Z,13.50
2022-08-17T02:32:55.216Z,7.10
2022-08-17T02:34:00.209Z,8.80
2022-08-17T02:34:56.205Z,7.20
2022-08-17T02:35:55.178Z,7.80
2022-08-17T02:36:55.159Z,6.20
2022-08-17T02:37:55.472Z,8.30
2022-08-17T02:38:55.201Z,8.50
2022-08-17T02:39:55.165Z,10.40
2022-08-17T02:40:55.121Z,7.60
2022-08-17T02:41:55.120Z,7.00
2022-08-17T02:42:55.110Z,8.90
2022-08-17T02:43:55.099Z,7.00
2022-08-17T02:44:55.102Z,6.90
2022-08-17T02:45:55.081Z,8.60
2022-08-17T02:46:55.051Z,8.00
2022-08-17T02:47:55.068Z,7.30
2022-08-17T02:48:55.064Z,8.40
2022-08-17T02:49:55.844Z,10.10
2022-08-17T02:50:55.022Z,7.50
2022-08-17T02:51:55.012Z,7.20
2022-08-17T02:53:01.631Z,7.80
2022-08-17T02:54:40.152Z,8.40
2022-08-17T02:54:56.010Z,7.50
2022-08-17T02:55:54.970Z,7.60
2022-08-17T02:56:55.917Z,7.30
2022-08-17T02:57:54.945Z,7.70
2022-08-17T02:58:54.925Z,7.00
2022-08-17T02:59:54.915Z,7.90
2022-08-17T03:00:54.945Z,7.20
2022-08-17T03:01:54.954Z,7.40
2022-08-17T03:02:54.902Z,8.70
2022-08-17T03:03:55.818Z,7.00
2022-08-17T03:04:54.881Z,7.90
2022-08-17T03:05:54.893Z,7.30
2022-08-17T03:06:54.834Z,7.20
2022-08-17T03:07:54.821Z,7.80
2022-08-17T03:08:54.812Z,7.30
2022-08-17T03:09:54.801Z,9.30
2022-08-17T03:10:54.811Z,8.20
2022-08-17T03:11:56.060Z,10.10
2022-08-17T03:12:54.773Z,9.20
2022-08-17T03:13:54.762Z,8.50
2022-08-17T03:14:54.760Z,7.40
2022-08-17T03:15:54.749Z,8.60
2022-08-17T03:16:54.765Z,8.30
2022-08-17T03:17:54.725Z,7.40
2022-08-17T03:18:54.705Z,7.40
2022-08-17T03:19:54.694Z,7.90
2022-08-17T03:20:54.707Z,7.60
2022-08-17T03:21:55.359Z,7.30
2022-08-17T03:22:55.188Z,8.00
2022-08-17T03:23:55.674Z,8.00
2022-08-17T03:24:54.657Z,8.30
2022-08-17T03:25:54.679Z,8.80
2022-08-17T03:26:54.623Z,8.10
2022-08-17T03:27:54.633Z,8.50
2022-08-17T03:28:54.593Z,8.40
2022-08-17T03:29:54.587Z,8.70
2022-08-17T03:30:54.595Z,7.50
2022-08-17T03:31:54.587Z,7.70
2022-08-17T03:32:54.544Z,6.90
2022-08-17T03:33:54.662Z,7.70
2022-08-17T03:34:54.529Z,7.80
2022-08-17T03:35:54.524Z,8.00
2022-08-17T03:36:54.510Z,7.00
2022-08-17T03:37:59.995Z,9.10
2022-08-17T03:38:55.500Z,8.10
2022-08-17T03:39:54.509Z,7.30
2022-08-17T03:40:56.753Z,7.30
2022-08-17T03:41:55.463Z,6.90
2022-08-17T03:42:54.442Z,7.40
2022-08-17T03:43:54.431Z,7.20
2022-08-17T03:44:54.452Z,8.20
2022-08-17T03:45:54.454Z,8.60
2022-08-17T03:46:54.422Z,7.70
2022-08-17T03:47:54.423Z,8.30
2022-08-17T03:48:54.413Z,7.40
2022-08-17T03:49:54.375Z,8.10
2022-08-17T03:50:54.381Z,8.00
2022-08-17T03:51:54.396Z,7.70
2022-08-17T03:52:54.439Z,9.60
2022-08-17T03:53:54.354Z,7.50
2022-08-17T03:54:54.347Z,7.60
2022-08-17T03:55:54.297Z,8.20
2022-08-17T03:56:54.279Z,7.90
2022-08-17T03:57:54.329Z,12.10
2022-08-17T03:58:54.266Z,8.00
2022-08-17T03:59:55.226Z,8.00
2022-08-17T04:00:54.270Z,8.00
2022-08-17T04:01:54.317Z,8.30
2022-08-17T04:02:54.221Z,8.10
2022-08-17T04:03:54.210Z,8.70
2022-08-17T04:04:54.256Z,8.30
2022-08-17T04:05:54.313Z,8.40
2022-08-17T04:06:54.180Z,8.20
2022-08-17T04:07:54.179Z,8.50
2022-08-17T04:08:54.176Z,8.50
2022-08-17T04:09:54.147Z,8.50
2022-08-17T04:10:54.130Z,8.10
2022-08-17T04:11:54.142Z,8.10
2022-08-17T04:12:54.112Z,8.20
2022-08-17T04:13:54.119Z,8.50
2022-08-17T04:14:55.165Z,8.40
2022-08-17T04:15:54.092Z,10.00
2022-08-17T04:16:54.103Z,10.50
2022-08-17T04:17:54.060Z,10.50
2022-08-17T04:18:54.065Z,8.20
2022-08-17T04:19:54.062Z,8.50
2022-08-17T04:20:54.021Z,8.40
2022-08-17T04:21:54.027Z,8.00
2022-08-17T04:22:54.024Z,7.50
2022-08-17T04:23:53.992Z,8.20
2022-08-17T04:24:54.032Z,8.70
2022-08-17T04:25:53.984Z,8.30
2022-08-17T04:26:54.776Z,8.00
2022-08-17T04:27:53.968Z,8.50
2022-08-17T04:28:53.953Z,8.00
2022-08-17T04:29:55.494Z,8.20
2022-08-17T04:30:53.950Z,8.50
2022-08-17T04:31:53.902Z,10.20
2022-08-17T04:33:05.406Z,7.50
2022-08-17T04:33:54.893Z,7.70
2022-08-17T04:34:53.867Z,8.90
2022-08-17T04:35:53.910Z,8.10
2022-08-17T04:36:53.924Z,8.40
2022-08-17T04:37:53.846Z,8.50
2022-08-17T04:38:53.828Z,9.40
2022-08-17T04:39:53.846Z,8.10
2022-08-17T04:40:53.802Z,8.60
2022-08-17T04:41:53.822Z,9.70
2022-08-17T04:42:53.839Z,8.20
2022-08-17T04:43:54.775Z,8.80
2022-08-17T04:44:53.874Z,8.30
2022-08-17T04:45:56.151Z,9.30
2022-08-17T04:46:53.736Z,7.90
2022-08-17T04:47:53.757Z,9.20
2022-08-17T04:48:53.716Z,8.70
2022-08-17T04:49:53.715Z,10.40
2022-08-17T04:50:53.687Z,8.40
2022-08-17T04:51:56.251Z,8.80
2022-08-17T04:52:55.030Z,8.20
2022-08-17T04:53:54.161Z,8.60
2022-08-17T04:54:53.646Z,8.00
2022-08-17T04:55:53.636Z,17.10
2022-08-17T04:56:53.648Z,134.80
2022-08-17T04:57:53.618Z,23.70
2022-08-17T04:58:53.633Z,47.40
2022-08-17T04:59:53.598Z,47.10
2022-08-17T05:00:53.624Z,13.10
2022-08-17T05:01:53.611Z,13.70
2022-08-17T05:02:53.766Z,14.60
2022-08-17T05:03:53.577Z,15.30
2022-08-17T05:04:53.576Z,12.30
2022-08-17T05:05:53.639Z,10.40
2022-08-17T05:06:53.527Z,12.30
2022-08-17T05:07:53.523Z,11.50
2022-08-17T05:08:53.509Z,10.40
2022-08-17T05:09:53.499Z,11.90
2022-08-17T05:10:53.493Z,11.50
2022-08-17T05:11:53.473Z,11.10
2022-08-17T05:12:53.499Z,9.20
2022-08-17T05:13:53.447Z,11.30
2022-08-17T05:14:53.493Z,9.20
2022-08-17T05:15:53.460Z,9.40
2022-08-17T05:16:53.406Z,8.50
2022-08-17T05:17:53.395Z,8.80
2022-08-17T05:18:53.385Z,8.30
2022-08-17T05:19:53.375Z,9.00
2022-08-17T05:20:53.475Z,9.50
2022-08-17T05:21:53.365Z,8.20
2022-08-17T05:22:53.349Z,9.00
2022-08-17T05:23:54.993Z,10.00
2022-08-17T05:24:55.476Z,9.20
2022-08-17T05:25:53.298Z,9.70
2022-08-17T05:26:53.329Z,10.00
2022-08-17T05:27:53.301Z,9.60
2022-08-17T05:28:53.278Z,8.40
2022-08-17T05:29:53.286Z,8.50
2022-08-17T05:30:53.279Z,10.40
2022-08-17T05:31:53.245Z,8.00
2022-08-17T05:32:53.452Z,7.60
2022-08-17T05:33:53.223Z,8.10
2022-08-17T05:34:53.220Z,8.60
2022-08-17T05:35:53.202Z,7.80
2022-08-17T05:36:53.192Z,8.90
2022-08-17T05:37:53.223Z,7.30
2022-08-17T05:38:53.194Z,8.10
2022-08-17T05:39:53.257Z,9.50
2022-08-17T05:40:53.159Z,7.90
2022-08-17T05:41:53.154Z,11.40
2022-08-17T05:42:53.293Z,7.80
2022-08-17T05:43:56.396Z,8.10
2022-08-17T05:44:53.113Z,8.20
2022-08-17T05:45:55.229Z,8.50
2022-08-17T05:46:53.103Z,10.70
2022-08-17T05:47:53.055Z,7.80
2022-08-17T05:48:53.099Z,7.20
2022-08-17T05:49:53.886Z,9.10
2022-08-17T05:50:53.049Z,7.60
2022-08-17T05:51:53.039Z,8.90
2022-08-17T05:52:53.048Z,8.10
2022-08-17T05:53:53.012Z,7.50
2022-08-17T05:54:52.997Z,8.60
2022-08-17T05:55:52.984Z,7.50
2022-08-17T05:56:52.993Z,7.30
2022-08-17T05:57:53.511Z,7.60
2022-08-17T05:58:52.962Z,8.80
2022-08-17T05:59:52.953Z,8.60
2022-08-17T06:00:53.018Z,8.00
2022-08-17T06:01:52.928Z,8.40
2022-08-17T06:02:53.211Z,8.60
2022-08-17T06:03:52.891Z,8.60
2022-08-17T06:04:52.893Z,8.50
2022-08-17T06:05:52.881Z,8.80
2022-08-17T06:06:53.564Z,11.50
2022-08-17T06:07:52.862Z,7.20
2022-08-17T06:08:52.871Z,10.50
2022-08-17T06:09:52.831Z,10.70
2022-08-17T06:10:52.897Z,7.30
2022-08-17T06:11:53.464Z,9.00
2022-08-17T06:12:52.797Z,6.00
2022-08-17T06:13:52.790Z,6.70
2022-08-17T06:14:52.844Z,9.00
2022-08-17T06:15:52.783Z,7.00
2022-08-17T06:16:52.766Z,6.80
2022-08-17T06:17:52.748Z,7.60
2022-08-17T06:18:52.725Z,7.80
2022-08-17T06:19:52.769Z,5.90
2022-08-17T06:20:52.747Z,8.70
2022-08-17T06:21:52.741Z,5.90
2022-08-17T06:22:52.920Z,7.10
2022-08-17T06:23:52.721Z,5.50
2022-08-17T06:24:52.722Z,8.90
2022-08-17T06:25:53.503Z,12.30
2022-08-17T06:26:52.776Z,8.40
2022-08-17T06:27:53.626Z,10.50
2022-08-17T06:28:52.647Z,10.10
2022-08-17T06:29:52.635Z,9.60
2022-08-17T06:30:59.973Z,6.30
2022-08-17T06:31:53.645Z,7.10
2022-08-17T06:32:52.849Z,6.40
2022-08-17T06:33:52.615Z,8.20
2022-08-17T06:34:52.565Z,4.90
2022-08-17T06:35:52.549Z,5.90
2022-08-17T06:36:52.558Z,6.60
2022-08-17T06:37:52.574Z,7.80
2022-08-17T06:38:52.562Z,6.60
2022-08-17T06:39:52.569Z,5.90
2022-08-17T06:40:52.518Z,6.10
2022-08-17T06:41:52.485Z,4.10
2022-08-17T06:43:02.358Z,5.40
2022-08-17T06:43:53.461Z,5.90
2022-08-17T06:44:52.468Z,4.10
2022-08-17T06:45:52.444Z,6.00
2022-08-17T06:46:52.439Z,4.50
2022-08-17T06:47:52.427Z,4.80
2022-08-17T06:48:52.457Z,4.60
2022-08-17T06:49:55.411Z,5.80
2022-08-17T06:50:52.396Z,4.90
2022-08-17T06:51:52.381Z,5.00
2022-08-17T06:52:52.377Z,4.90
2022-08-17T06:53:52.349Z,5.40
2022-08-17T06:54:52.376Z,5.30
2022-08-17T06:55:52.394Z,5.90
2022-08-17T06:56:54.358Z,4.60
2022-08-17T06:57:52.311Z,5.50
2022-08-17T06:58:52.287Z,6.00
2022-08-17T06:59:55.533Z,7.60
2022-08-17T07:00:56.612Z,6.40
2022-08-17T07:01:53.304Z,5.20
2022-08-17T07:02:53.545Z,5.80
2022-08-17T07:03:52.234Z,6.00
2022-08-17T07:04:52.362Z,5.60
2022-08-17T07:05:52.234Z,5.20
2022-08-17T07:06:52.216Z,6.80
2022-08-17T07:07:52.194Z,8.30
2022-08-17T07:08:52.191Z,8.10
2022-08-17T07:09:52.184Z,8.00
2022-08-17T07:10:52.156Z,6.70
2022-08-17T07:11:52.177Z,8.00
2022-08-17T07:12:52.237Z,10.00
2022-08-17T07:13:52.126Z,7.00
2022-08-17T07:14:52.117Z,7.00
2022-08-17T07:15:56.516Z,6.10
2022-08-17T07:16:53.096Z,8.80
2022-08-17T07:17:52.123Z,8.80
2022-08-17T07:18:52.087Z,9.30
2022-08-17T07:19:52.057Z,10.40
2022-08-17T07:20:52.051Z,8.50
2022-08-17T07:21:52.061Z,7.40
2022-08-17T07:22:59.912Z,6.70
2022-08-17T07:23:53.069Z,7.60
2022-08-17T07:24:52.016Z,8.10
2022-08-17T07:25:52.012Z,8.40
2022-08-17T07:26:52.191Z,7.30
2022-08-17T07:27:52.088Z,9.00
2022-08-17T07:28:51.971Z,15.70
2022-08-17T07:29:51.964Z,12.70
2022-08-17T07:30:51.957Z,7.40
2022-08-17T07:31:51.971Z,8.70
2022-08-17T07:32:51.947Z,7.10
2022-08-17T07:33:51.926Z,10.80
2022-08-17T07:34:51.902Z,8.50
2022-08-17T07:35:51.885Z,9.10
2022-08-17T07:36:51.875Z,10.40
2022-08-17T07:37:52.071Z,9.30
2022-08-17T07:38:51.847Z,11.60
2022-08-17T07:40:15.456Z,9.10
2022-08-17T07:40:52.827Z,9.90
2022-08-17T07:41:53.232Z,9.30
2022-08-17T07:42:52.807Z,9.30
2022-08-17T07:43:51.797Z,9.30
2022-08-17T07:44:51.818Z,8.40
2022-08-17T07:45:51.815Z,9.20
2022-08-17T07:46:51.808Z,8.70
2022-08-17T07:47:51.901Z,8.80
2022-08-17T07:48:52.778Z,9.50
2022-08-17T07:49:51.754Z,9.10
2022-08-17T07:50:51.722Z,12.60
2022-08-17T07:51:51.718Z,11.00
2022-08-17T07:52:52.539Z,11.90
2022-08-17T07:53:51.681Z,13.30
2022-08-17T07:54:51.697Z,10.90
2022-08-17T07:55:51.693Z,10.00
2022-08-17T07:56:51.662Z,12.10
2022-08-17T07:57:51.886Z,10.40
2022-08-17T07:58:51.634Z,9.80
2022-08-17T07:59:51.696Z,11.40
2022-08-17T08:00:51.626Z,11.10
2022-08-17T08:01:51.769Z,12.60
2022-08-17T08:02:52.596Z,10.90
2022-08-17T08:03:52.727Z,11.60
2022-08-17T08:05:08.653Z,9.10
2022-08-17T08:05:52.593Z,10.90
2022-08-17T08:06:51.561Z,12.90
2022-08-17T08:07:51.772Z,10.80
2022-08-17T08:08:51.540Z,12.00
2022-08-17T08:09:51.554Z,12.40
2022-08-17T08:10:51.514Z,11.50
2022-08-17T08:11:51.495Z,9.70
2022-08-17T08:12:53.954Z,10.50
2022-08-17T08:13:51.481Z,10.40
2022-08-17T08:14:51.498Z,10.60
2022-08-17T08:15:52.219Z,10.40
2022-08-17T08:16:51.474Z,14.40
2022-08-17T08:17:51.659Z,12.70
2022-08-17T08:18:54.750Z,10.60
2022-08-17T08:19:51.426Z,12.90
2022-08-17T08:20:53.863Z,10.90
2022-08-17T08:21:51.416Z,11.50
2022-08-17T08:22:51.378Z,12.30
2022-08-17T08:23:51.362Z,11.70
2022-08-17T08:24:51.384Z,13.60
2022-08-17T08:25:53.631Z,11.60
2022-08-17T08:26:51.346Z,11.10
2022-08-17T08:27:51.522Z,13.50
2022-08-17T08:28:51.304Z,10.60
2022-08-17T08:29:51.314Z,11.90
2022-08-17T08:30:51.316Z,12.00
2022-08-17T08:31:51.317Z,11.20
2022-08-17T08:32:51.308Z,12.50
2022-08-17T08:33:51.266Z,10.70
2022-08-17T08:35:02.246Z,13.70
2022-08-17T08:35:52.259Z,10.40
2022-08-17T08:37:12.659Z,17.20
2022-08-17T08:37:52.409Z,14.00
2022-08-17T08:38:51.203Z,14.60
2022-08-17T08:39:51.235Z,12.50
2022-08-17T08:40:51.209Z,13.50
2022-08-17T08:41:51.168Z,11.70
2022-08-17T08:42:51.160Z,15.90
2022-08-17T08:43:53.190Z,14.60
2022-08-17T08:45:00.323Z,12.90
2022-08-17T08:45:52.135Z,11.40
2022-08-17T08:46:51.115Z,14.00
2022-08-17T08:47:51.175Z,15.40
2022-08-17T08:48:56.447Z,13.60
2022-08-17T08:50:07.455Z,14.10
2022-08-17T08:50:52.073Z,11.10
2022-08-17T08:51:51.721Z,12.10
2022-08-17T08:52:51.071Z,11.30
2022-08-17T08:53:51.045Z,12.80
2022-08-17T08:54:51.055Z,12.70
2022-08-17T08:55:51.007Z,13.50
2022-08-17T08:57:19.812Z,12.00
2022-08-17T08:57:52.085Z,10.70
2022-08-17T08:58:51.051Z,12.60
2022-08-17T08:59:57.707Z,13.50
2022-08-17T09:00:51.993Z,12.50
2022-08-17T09:01:51.030Z,13.40
2022-08-17T09:02:50.932Z,12.80
2022-08-17T09:03:53.297Z,12.90
2022-08-17T09:05:13.429Z,13.90
2022-08-17T09:05:51.923Z,14.10
2022-08-17T09:06:50.919Z,11.70
2022-08-17T09:07:51.035Z,16.60
2022-08-17T09:08:51.906Z,11.30
2022-08-17T09:09:53.358Z,11.70
2022-08-17T09:10:51.864Z,11.70
2022-08-17T09:12:02.603Z,14.50
2022-08-17T09:12:51.840Z,13.50
2022-08-17T09:13:54.375Z,11.60
2022-08-17T09:14:50.821Z,10.60
2022-08-17T09:15:50.812Z,13.20
2022-08-17T09:16:50.812Z,13.90
2022-08-17T09:18:03.484Z,14.00
2022-08-17T09:19:03.059Z,13.90
2022-08-17T09:19:51.837Z,13.00
2022-08-17T09:20:50.774Z,14.50
2022-08-17T09:21:50.743Z,15.00
2022-08-17T09:22:50.726Z,14.90
2022-08-17T09:23:50.725Z,12.80
2022-08-17T09:24:51.651Z,14.80
2022-08-17T09:25:50.719Z,15.30
2022-08-17T09:26:50.670Z,14.80
2022-08-17T09:27:50.825Z,14.40
2022-08-17T09:28:50.669Z,14.60
2022-08-17T09:29:50.631Z,16.00
2022-08-17T09:30:50.628Z,12.50
2022-08-17T09:31:50.655Z,17.00
2022-08-17T09:32:50.600Z,15.00
2022-08-17T09:33:50.600Z,15.90
2022-08-17T09:34:50.581Z,18.40
2022-08-17T09:35:50.622Z,14.30
2022-08-17T09:36:50.648Z,16.50
2022-08-17T09:37:50.718Z,14.20
2022-08-17T09:38:50.551Z,15.80
2022-08-17T09:39:50.626Z,14.00
2022-08-17T09:40:50.544Z,14.80
2022-08-17T09:41:50.538Z,16.70
2022-08-17T09:42:50.599Z,16.20
2022-08-17T09:43:50.549Z,17.10
2022-08-17T09:44:50.490Z,15.90
2022-08-17T09:45:50.495Z,15.90
2022-08-17T09:46:50.457Z,17.30
2022-08-17T09:47:50.617Z,16.70
2022-08-17T09:48:50.461Z,19.60
2022-08-17T09:49:50.426Z,15.30
2022-08-17T09:51:03.266Z,19.40
2022-08-17T09:51:51.408Z,18.10
2022-08-17T09:52:50.449Z,16.50
2022-08-17T09:53:50.393Z,18.80
2022-08-17T09:54:50.369Z,21.80
2022-08-17T09:55:50.373Z,18.40
2022-08-17T09:57:11.504Z,17.80
2022-08-17T09:57:51.500Z,16.70
2022-08-17T09:58:50.359Z,17.30
2022-08-17T09:59:50.351Z,15.80
2022-08-17T10:00:50.403Z,19.00
2022-08-17T10:01:50.310Z,16.80
2022-08-17T10:02:50.283Z,15.30
2022-08-17T10:03:50.305Z,19.30
2022-08-17T10:04:50.295Z,16.10
2022-08-17T10:05:50.296Z,19.40
2022-08-17T10:06:51.246Z,17.70
2022-08-17T10:07:50.448Z,18.50
2022-08-17T10:08:50.212Z,16.10
2022-08-17T10:09:50.294Z,17.30
2022-08-17T10:10:56.204Z,18.20
2022-08-17T10:11:51.221Z,16.80
2022-08-17T10:12:50.185Z,19.60
2022-08-17T10:13:52.886Z,18.60
2022-08-17T10:14:53.460Z,20.70
2022-08-17T10:15:51.152Z,18.50
2022-08-17T10:16:50.126Z,18.80
2022-08-17T10:17:50.304Z,16.80
2022-08-17T10:18:50.123Z,16.30
2022-08-17T10:19:50.107Z,19.70
2022-08-17T10:20:50.085Z,17.50
2022-08-17T10:21:50.092Z,17.70
2022-08-17T10:22:54.835Z,19.70
2022-08-17T10:23:50.058Z,19.10
2022-08-17T10:25:21.010Z,20.50
2022-08-17T10:25:55.400Z,19.50
2022-08-17T10:26:56.898Z,19.50
2022-08-17T10:27:51.190Z,31.60
2022-08-17T10:28:50.010Z,19.10
2022-08-17T10:29:50.027Z,18.50
2022-08-17T10:30:49.966Z,20.70
2022-08-17T10:31:50.000Z,21.50
2022-08-17T10:32:49.976Z,21.00
2022-08-17T10:33:49.941Z,19.90
2022-08-17T10:34:49.974Z,19.90
2022-08-17T10:35:49.920Z,20.30
2022-08-17T10:36:50.868Z,20.10
2022-08-17T10:37:51.099Z,23.10
2022-08-17T10:38:49.905Z,21.20
2022-08-17T10:39:52.752Z,18.30
2022-08-17T10:40:49.887Z,19.40
2022-08-17T10:41:49.853Z,20.20
2022-08-17T10:42:49.831Z,18.70
2022-08-17T10:43:57.928Z,18.80
2022-08-17T10:44:50.846Z,18.80
2022-08-17T10:45:49.825Z,22.30
2022-08-17T10:46:50.838Z,17.60
2022-08-17T10:47:55.374Z,18.20
2022-08-17T10:48:50.827Z,19.80
2022-08-17T10:49:49.806Z,20.10
2022-08-17T10:50:49.806Z,21.80
2022-08-17T10:51:49.757Z,19.90
2022-08-17T10:52:49.732Z,19.90
2022-08-17T10:53:49.717Z,20.60
2022-08-17T10:54:49.703Z,19.40
2022-08-17T10:55:49.708Z,18.60
2022-08-17T10:56:49.739Z,18.40
2022-08-17T10:57:49.883Z,18.60
2022-08-17T10:58:49.667Z,20.50
2022-08-17T10:59:49.653Z,22.00
2022-08-17T11:00:49.675Z,21.30
2022-08-17T11:01:49.644Z,23.40
2022-08-17T11:02:50.157Z,20.30
2022-08-17T11:03:49.614Z,20.30
2022-08-17T11:04:49.653Z,20.70
2022-08-17T11:05:49.593Z,19.80
2022-08-17T11:06:49.593Z,21.00
2022-08-17T11:07:49.595Z,20.10
2022-08-17T11:08:49.571Z,19.50
2022-08-17T11:09:49.562Z,21.90
2022-08-17T11:10:52.147Z,20.80
2022-08-17T11:11:49.548Z,20.30
2022-08-17T11:12:49.580Z,19.90
2022-08-17T11:13:49.501Z,19.60
2022-08-17T11:14:49.494Z,19.90
2022-08-17T11:15:49.503Z,21.10
2022-08-17T11:16:49.462Z,22.20
2022-08-17T11:17:49.476Z,23.30
2022-08-17T11:18:49.438Z,23.10
2022-08-17T11:19:49.444Z,22.10
2022-08-17T11:20:49.448Z,24.20
2022-08-17T11:21:49.426Z,27.10
2022-08-17T11:22:49.548Z,25.80
2022-08-17T11:23:49.445Z,25.10
2022-08-17T11:24:49.385Z,25.60
2022-08-17T11:25:49.370Z,23.50
2022-08-17T11:26:49.339Z,23.10
2022-08-17T11:27:49.381Z,23.20
2022-08-17T11:28:52.595Z,24.00
2022-08-17T11:29:52.966Z,23.50
2022-08-17T11:30:50.310Z,24.50
2022-08-17T11:31:49.364Z,22.70
2022-08-17T11:32:52.925Z,24.80
2022-08-17T11:33:50.321Z,22.80
2022-08-17T11:34:49.284Z,26.40
2022-08-17T11:35:49.268Z,24.00
2022-08-17T11:36:49.244Z,25.30
2022-08-17T11:37:49.234Z,25.10
2022-08-17T11:38:49.271Z,24.90
2022-08-17T11:39:49.339Z,27.20
2022-08-17T11:40:49.227Z,25.40
2022-08-17T11:41:49.186Z,25.20
2022-08-17T11:42:49.288Z,27.10
2022-08-17T11:43:49.166Z,27.10
2022-08-17T11:44:49.177Z,25.10
2022-08-17T11:45:49.176Z,24.80
2022-08-17T11:46:51.649Z,25.50
2022-08-17T11:48:09.055Z,24.40
2022-08-17T11:48:50.119Z,26.50
2022-08-17T11:49:49.108Z,26.60
2022-08-17T11:50:49.079Z,25.80
2022-08-17T11:51:49.096Z,27.40
2022-08-17T11:52:49.099Z,25.70
2022-08-17T11:53:49.079Z,28.20
2022-08-17T11:54:49.079Z,30.70
2022-08-17T11:55:49.045Z,29.80
2022-08-17T11:56:49.044Z,29.60
2022-08-17T11:57:49.070Z,30.20
2022-08-17T11:58:49.041Z,29.40
2022-08-17T11:59:49.014Z,30.00
2022-08-17T12:00:48.982Z,31.10
2022-08-17T12:01:48.978Z,30.80
2022-08-17T12:02:49.035Z,31.60
2022-08-17T12:03:54.024Z,32.50
2022-08-17T12:04:50.006Z,28.90
2022-08-17T12:05:48.955Z,29.90
2022-08-17T12:06:48.903Z,31.70
2022-08-17T12:07:49.191Z,33.20
2022-08-17T12:08:48.897Z,30.50
2022-08-17T12:09:49.897Z,29.40
2022-08-17T12:10:48.905Z,30.70
2022-08-17T12:11:56.276Z,30.00
2022-08-17T12:12:49.857Z,29.60
2022-08-17T12:13:48.842Z,30.80
2022-08-17T12:15:09.521Z,28.80
2022-08-17T12:15:49.865Z,30.50
2022-08-17T12:16:48.821Z,27.40
2022-08-17T12:17:48.810Z,29.30
2022-08-17T12:18:48.792Z,30.30
2022-08-17T12:19:48.822Z,29.10
2022-08-17T12:20:52.029Z,29.90
2022-08-17T12:21:49.805Z,28.70
2022-08-17T12:22:48.752Z,28.90
2022-08-17T12:23:48.741Z,30.50
2022-08-17T12:24:48.711Z,32.30
2022-08-17T12:25:48.754Z,30.00
2022-08-17T12:26:48.743Z,31.80
2022-08-17T12:28:06.430Z,29.30
2022-08-17T12:28:49.709Z,28.20
2022-08-17T12:29:48.663Z,30.80
2022-08-17T12:30:48.687Z,30.00
2022-08-17T12:31:48.654Z,29.10
2022-08-17T12:32:48.646Z,31.60
2022-08-17T12:33:48.633Z,31.50
2022-08-17T12:34:48.627Z,31.60
2022-08-17T12:35:48.604Z,29.90
2022-08-17T12:36:48.614Z,31.20
2022-08-17T12:37:48.692Z,30.20
2022-08-17T12:38:48.596Z,30.90
2022-08-17T12:39:48.589Z,29.90
2022-08-17T12:40:48.548Z,30.10
2022-08-17T12:41:50.351Z,30.50
2022-08-17T12:42:48.547Z,29.90
2022-08-17T12:43:48.528Z,30.20
2022-08-17T12:44:50.146Z,31.00
2022-08-17T12:45:48.491Z,32.90
2022-08-17T12:46:48.487Z,31.60
2022-08-17T12:47:48.478Z,36.60
2022-08-17T12:48:58.971Z,33.90
2022-08-17T12:49:49.470Z,32.50
2022-08-17T12:50:48.449Z,32.60
2022-08-17T12:51:48.437Z,33.20
2022-08-17T12:52:48.428Z,31.80
2022-08-17T12:53:48.405Z,32.60
2022-08-17T12:54:48.431Z,31.50
2022-08-17T12:55:48.385Z,31.00
2022-08-17T12:56:48.384Z,32.40
2022-08-17T12:57:48.397Z,33.30
2022-08-17T12:58:48.345Z,30.60
2022-08-17T12:59:48.357Z,28.70
2022-08-17T13:00:48.347Z,29.50
2022-08-17T13:01:48.395Z,29.70
2022-08-17T13:02:48.328Z,29.80
2022-08-17T13:03:48.346Z,29.00
2022-08-17T13:04:48.277Z,30.20
2022-08-17T13:05:48.297Z,29.20
2022-08-17T13:06:48.302Z,28.50